createdAt,value
2018-01-22T00:02:10.038Z,3.70
2018-01-22T00:04:39.204Z,3.70
2018-01-22T00:07:07.578Z,3.70
2018-01-22T00:09:36.032Z,3.70
2018-01-22T00:12:04.101Z,3.70
2018-01-22T00:14:32.461Z,3.70
2018-01-22T00:17:00.891Z,3.80
2018-01-22T00:19:29.319Z,3.70
2018-01-22T00:21:57.741Z,3.70
2018-01-22T00:24:26.197Z,3.80
2018-01-22T00:26:54.576Z,3.90
2018-01-22T00:29:22.923Z,3.80
2018-01-22T00:31:51.313Z,3.80
2018-01-22T00:34:19.678Z,3.70
2018-01-22T00:36:48.975Z,3.80
2018-01-22T00:39:18.126Z,3.80
2018-01-22T00:41:46.522Z,3.80
2018-01-22T00:44:14.926Z,3.80
2018-01-22T00:46:44.210Z,3.90
2018-01-22T00:49:12.562Z,3.90
2018-01-22T00:51:41.080Z,3.90
2018-01-22T00:54:10.468Z,3.90
2018-01-22T00:56:39.014Z,3.90
2018-01-22T00:59:07.398Z,3.90
2018-01-22T01:01:35.746Z,3.90
2018-01-22T01:04:04.147Z,3.80
2018-01-22T01:06:32.517Z,3.80
2018-01-22T01:09:01.160Z,3.80
2018-01-22T01:11:29.959Z,3.70
2018-01-22T01:13:58.327Z,3.70
2018-01-22T01:16:27.458Z,3.80
2018-01-22T01:18:55.842Z,3.70
2018-01-22T01:21:24.256Z,3.80
2018-01-22T01:23:52.635Z,3.70
2018-01-22T01:26:20.999Z,3.70
2018-01-22T01:28:49.378Z,3.60
2018-01-22T01:31:17.721Z,3.70
2018-01-22T01:33:46.093Z,3.70
2018-01-22T01:36:14.687Z,3.80
2018-01-22T01:38:43.081Z,3.80
2018-01-22T01:41:11.469Z,3.80
2018-01-22T01:43:39.825Z,3.80
2018-01-22T01:46:08.206Z,3.80
2018-01-22T01:48:36.562Z,3.80
2018-01-22T01:51:04.944Z,3.90
2018-01-22T01:53:33.492Z,3.90
2018-01-22T01:56:02.652Z,3.90
2018-01-22T01:58:31.140Z,3.90
2018-01-22T02:00:59.190Z,3.90
2018-01-22T02:03:27.568Z,3.90
2018-01-22T02:05:55.937Z,3.90
2018-01-22T02:08:24.296Z,3.90
2018-01-22T02:10:52.699Z,3.80
2018-01-22T02:13:21.076Z,3.80
2018-01-22T02:15:49.508Z,3.80
2018-01-22T02:18:18.247Z,3.90
2018-01-22T02:20:46.288Z,3.80
2018-01-22T02:23:15.551Z,3.80
2018-01-22T02:25:43.910Z,3.80
2018-01-22T02:28:12.415Z,3.80
2018-01-22T02:30:40.934Z,3.90
2018-01-22T02:33:09.351Z,3.90
2018-01-22T02:35:37.742Z,3.90
2018-01-22T02:38:06.158Z,3.90
2018-01-22T02:40:34.548Z,4.00
2018-01-22T02:43:02.911Z,3.90
2018-01-22T02:45:32.145Z,3.90
2018-01-22T02:48:00.527Z,3.90
2018-01-22T02:50:28.731Z,3.80
2018-01-22T02:52:57.128Z,3.90
2018-01-22T02:55:26.268Z,3.90
2018-01-22T02:57:54.615Z,3.90
2018-01-22T03:00:22.977Z,3.90
2018-01-22T03:02:52.111Z,3.90
2018-01-22T03:05:20.603Z,3.90
2018-01-22T03:07:48.960Z,4.00
2018-01-22T03:10:17.487Z,4.00
2018-01-22T03:12:45.849Z,4.00
2018-01-22T03:15:14.224Z,4.00
2018-01-22T03:17:42.667Z,3.90
2018-01-22T03:20:11.041Z,4.00
2018-01-22T03:22:39.409Z,4.00
2018-01-22T03:25:08.714Z,4.00
2018-01-22T03:27:37.175Z,4.00
2018-01-22T03:30:06.305Z,4.00
2018-01-22T03:32:34.667Z,4.00
2018-01-22T03:35:03.841Z,4.00
2018-01-22T03:37:32.208Z,4.00
2018-01-22T03:40:00.578Z,4.10
2018-01-22T03:42:28.940Z,4.10
2018-01-22T03:44:57.415Z,4.00
2018-01-22T03:47:25.773Z,4.00
2018-01-22T03:49:54.133Z,4.00
2018-01-22T03:52:23.283Z,4.00
2018-01-22T03:54:51.650Z,4.00
2018-01-22T03:57:20.227Z,4.00
2018-01-22T03:59:48.571Z,4.10
2018-01-22T04:02:17.077Z,4.10
2018-01-22T04:04:45.657Z,4.10
2018-01-22T04:07:18.038Z,4.10
2018-01-22T04:09:46.396Z,4.10
2018-01-22T04:12:14.733Z,4.20
2018-01-22T04:14:43.883Z,4.20
2018-01-22T04:17:12.361Z,4.10
2018-01-22T04:19:40.740Z,4.10
2018-01-22T04:22:09.090Z,4.10
2018-01-22T04:24:38.415Z,4.10
2018-01-22T04:27:06.761Z,4.10
2018-01-22T04:29:36.034Z,4.10
2018-01-22T04:32:04.467Z,4.10
2018-01-22T04:34:32.846Z,4.10
2018-01-22T04:37:01.359Z,4.10
2018-01-22T04:39:30.411Z,4.20
2018-01-22T04:41:58.767Z,4.20
2018-01-22T04:44:28.053Z,4.20
2018-01-22T04:46:57.195Z,4.20
2018-01-22T04:49:25.542Z,4.20
2018-01-22T04:51:53.938Z,4.20
2018-01-22T04:54:22.337Z,4.20
2018-01-22T04:56:50.859Z,4.20
2018-01-22T04:59:19.329Z,4.20
2018-01-22T05:01:47.700Z,4.20
2018-01-22T05:04:15.877Z,4.10
2018-01-22T05:06:44.272Z,4.10
2018-01-22T05:09:12.633Z,4.20
2018-01-22T05:11:41.016Z,4.10
2018-01-22T05:14:09.370Z,4.20
2018-01-22T05:16:37.738Z,4.30
2018-01-22T05:19:06.091Z,4.30
2018-01-22T05:21:34.641Z,4.40
2018-01-22T05:24:03.084Z,4.40
2018-01-22T05:26:31.427Z,4.40
2018-01-22T05:28:59.786Z,4.40
2018-01-22T05:31:28.926Z,4.40
2018-01-22T05:33:57.264Z,4.40
2018-01-22T05:36:26.378Z,4.40
2018-01-22T05:38:54.743Z,4.40
2018-01-22T05:41:23.858Z,4.40
2018-01-22T05:43:52.264Z,4.40
2018-01-22T05:46:20.723Z,4.40
2018-01-22T05:48:49.083Z,4.40
2018-01-22T05:51:17.441Z,4.40
2018-01-22T05:53:45.988Z,4.40
2018-01-22T05:56:14.165Z,4.40
2018-01-22T05:58:42.335Z,4.40
2018-01-22T06:01:10.706Z,4.30
2018-01-22T06:03:39.074Z,4.30
2018-01-22T06:06:07.623Z,4.40
2018-01-22T06:08:36.161Z,4.40
2018-01-22T06:11:05.338Z,4.40
2018-01-22T06:13:34.645Z,4.50
2018-01-22T06:16:02.994Z,4.50
2018-01-22T06:18:31.367Z,4.50
2018-01-22T06:20:59.716Z,4.60
2018-01-22T06:23:28.851Z,4.60
2018-01-22T06:25:57.032Z,4.60
2018-01-22T06:28:25.420Z,4.60
2018-01-22T06:30:53.934Z,4.50
2018-01-22T06:33:23.323Z,4.60
2018-01-22T06:35:51.724Z,4.60
2018-01-22T06:38:20.855Z,4.70
2018-01-22T06:40:49.921Z,4.70
2018-01-22T06:43:19.286Z,4.80
2018-01-22T06:45:47.668Z,4.70
2018-01-22T06:48:16.069Z,4.80
2018-01-22T06:50:45.223Z,4.80
2018-01-22T06:53:13.596Z,4.80
2018-01-22T06:55:42.237Z,4.70
2018-01-22T06:58:11.542Z,4.80
2018-01-22T07:00:40.023Z,4.80
2018-01-22T07:03:09.158Z,4.90
2018-01-22T07:05:37.531Z,4.90
2018-01-22T07:08:05.935Z,4.90
2018-01-22T07:10:34.339Z,5.00
2018-01-22T07:13:03.513Z,5.00
2018-01-22T07:15:31.985Z,5.00
2018-01-22T07:18:00.397Z,5.00
2018-01-22T07:20:29.839Z,5.10
2018-01-22T07:22:58.345Z,5.10
2018-01-22T07:25:26.799Z,5.20
2018-01-22T07:27:55.421Z,5.20
2018-01-22T07:30:23.803Z,5.20
2018-01-22T07:32:52.168Z,5.20
2018-01-22T07:35:20.584Z,5.20
2018-01-22T07:37:49.723Z,5.20
2018-01-22T07:40:18.088Z,5.20
2018-01-22T07:42:46.488Z,5.30
2018-01-22T07:45:15.034Z,5.30
2018-01-22T07:47:44.169Z,5.30
2018-01-22T07:50:12.550Z,5.30
2018-01-22T07:52:41.078Z,5.30
2018-01-22T07:55:10.228Z,5.40
2018-01-22T07:57:38.594Z,5.40
2018-01-22T08:00:06.997Z,5.40
2018-01-22T08:02:36.032Z,5.40
2018-01-22T08:05:04.410Z,5.40
2018-01-22T08:07:32.927Z,5.50
2018-01-22T08:10:01.314Z,5.50
2018-01-22T08:12:29.694Z,5.50
2018-01-22T08:14:58.076Z,5.50
2018-01-22T08:17:26.344Z,5.60
2018-01-22T08:19:55.609Z,5.70
2018-01-22T08:22:23.993Z,5.70
2018-01-22T08:24:52.516Z,5.70
2018-01-22T08:27:21.092Z,5.80
2018-01-22T08:29:49.697Z,5.80
2018-01-22T08:32:18.288Z,5.80
2018-01-22T08:34:47.457Z,5.80
2018-01-22T08:37:15.940Z,5.80
2018-01-22T08:39:45.818Z,5.90
2018-01-22T08:42:14.209Z,5.90
2018-01-22T08:44:42.574Z,5.90
2018-01-22T08:47:10.940Z,6.00
2018-01-22T08:49:39.485Z,5.90
2018-01-22T08:52:07.821Z,6.00
2018-01-22T08:54:36.189Z,6.00
2018-01-22T08:57:04.527Z,6.10
2018-01-22T08:59:33.661Z,6.10
2018-01-22T09:02:01.824Z,6.10
2018-01-22T09:04:30.370Z,6.20
2018-01-22T09:06:58.706Z,6.20
2018-01-22T09:09:27.086Z,6.30
2018-01-22T09:11:55.421Z,6.40
2018-01-22T09:14:26.075Z,6.70
2018-01-22T09:16:54.092Z,6.60
2018-01-22T09:19:22.490Z,6.80
2018-01-22T09:21:51.612Z,6.80
2018-01-22T09:24:19.961Z,6.80
2018-01-22T09:26:49.087Z,6.90
2018-01-22T09:29:17.431Z,6.90
2018-01-22T09:31:46.669Z,6.90
2018-01-22T09:34:15.023Z,6.90
2018-01-22T09:36:43.398Z,7.00
2018-01-22T09:39:11.813Z,7.10
2018-01-22T09:41:40.212Z,7.10
2018-01-22T09:44:08.729Z,7.20
2018-01-22T09:46:38.164Z,7.40
2018-01-22T09:49:06.695Z,7.40
2018-01-22T09:51:35.841Z,7.60
2018-01-22T09:54:03.867Z,7.60
2018-01-22T09:56:33.251Z,7.60
2018-01-22T09:59:01.895Z,7.60
2018-01-22T10:01:30.377Z,7.60
2018-01-22T10:03:58.873Z,7.60
2018-01-22T10:06:27.476Z,7.50
2018-01-22T10:08:55.821Z,7.50
2018-01-22T10:11:24.265Z,7.50
2018-01-22T10:13:54.010Z,7.50
2018-01-22T10:16:22.428Z,7.50
2018-01-22T10:18:50.878Z,7.60
2018-01-22T10:21:19.518Z,7.70
2018-01-22T10:23:48.661Z,7.70
2018-01-22T10:26:17.083Z,7.70
2018-01-22T10:28:46.245Z,8.00
2018-01-22T10:31:14.791Z,8.00
2018-01-22T10:33:43.171Z,8.10
2018-01-22T10:36:11.641Z,8.30
2018-01-22T10:38:40.002Z,8.40
2018-01-22T10:41:08.395Z,8.50
2018-01-22T10:43:36.948Z,8.60
2018-01-22T10:46:06.855Z,8.70
2018-01-22T10:48:35.287Z,8.70
2018-01-22T10:51:03.841Z,8.70
2018-01-22T10:53:33.199Z,8.70
2018-01-22T10:56:01.661Z,8.70
2018-01-22T10:58:30.165Z,8.80
2018-01-22T11:00:58.551Z,8.80
2018-01-22T11:03:27.149Z,9.00
2018-01-22T11:05:55.784Z,9.10
2018-01-22T11:08:24.318Z,9.20
2018-01-22T11:10:53.637Z,9.20
2018-01-22T11:13:22.057Z,9.20
2018-01-22T11:15:56.019Z,9.20
2018-01-22T11:18:24.541Z,9.20
2018-01-22T11:20:52.928Z,9.20
2018-01-22T11:23:21.453Z,9.30
2018-01-22T11:25:50.910Z,9.10
2018-01-22T11:28:19.518Z,9.10
2018-01-22T11:30:47.891Z,9.10
2018-01-22T11:33:16.276Z,9.10
2018-01-22T11:35:45.447Z,9.10
2018-01-22T11:38:13.828Z,9.10
2018-01-22T11:40:42.227Z,9.10
2018-01-22T11:43:10.611Z,9.10
2018-01-22T11:45:39.051Z,9.20
2018-01-22T11:48:07.392Z,9.10
2018-01-22T11:50:35.783Z,9.10
2018-01-22T11:53:04.333Z,9.20
2018-01-22T11:55:33.905Z,9.20
2018-01-22T11:58:02.277Z,9.20
2018-01-22T12:00:30.517Z,9.30
2018-01-22T12:02:58.888Z,9.30
2018-01-22T12:05:28.129Z,9.40
2018-01-22T12:07:56.530Z,9.40
2018-01-22T12:10:24.894Z,9.40
2018-01-22T12:12:53.420Z,9.40
2018-01-22T12:15:22.553Z,9.40
2018-01-22T12:17:51.576Z,9.40
2018-01-22T12:20:20.097Z,9.40
2018-01-22T12:22:48.655Z,9.50
2018-01-22T12:25:18.012Z,9.70
2018-01-22T12:27:46.442Z,9.60
2018-01-22T12:30:15.747Z,9.70
2018-01-22T12:32:45.102Z,9.70
2018-01-22T12:35:13.454Z,9.70
2018-01-22T12:37:41.811Z,9.70
2018-01-22T12:40:10.976Z,9.60
2018-01-22T12:42:39.369Z,9.60
2018-01-22T12:45:08.510Z,9.50
2018-01-22T12:47:36.876Z,9.40
2018-01-22T12:50:05.320Z,9.40
2018-01-22T12:52:34.449Z,9.40
2018-01-22T12:55:02.851Z,9.40
2018-01-22T12:57:31.214Z,9.40
2018-01-22T12:59:59.599Z,9.40
2018-01-22T13:02:28.139Z,9.40
2018-01-22T13:04:57.266Z,9.40
2018-01-22T13:07:25.803Z,9.40
2018-01-22T13:09:54.180Z,9.50
2018-01-22T13:12:22.744Z,9.50
2018-01-22T13:14:51.262Z,9.50
2018-01-22T13:17:20.397Z,9.60
2018-01-22T13:19:48.833Z,9.60
2018-01-22T13:22:18.072Z,9.60
2018-01-22T13:24:46.484Z,9.60
2018-01-22T13:27:15.464Z,9.70
2018-01-22T13:29:43.814Z,9.70
2018-01-22T13:32:12.188Z,9.70
2018-01-22T13:34:40.608Z,9.70
2018-01-22T13:37:09.743Z,9.70
2018-01-22T13:39:38.885Z,9.80
2018-01-22T13:42:07.401Z,9.80
2018-01-22T13:44:36.548Z,9.80
2018-01-22T13:47:04.920Z,9.80
2018-01-22T13:49:33.301Z,9.80
2018-01-22T13:52:01.842Z,9.70
2018-01-22T13:54:30.992Z,9.70
2018-01-22T13:56:59.366Z,9.70
2018-01-22T13:59:27.804Z,9.70
2018-01-22T14:01:56.941Z,9.70
2018-01-22T14:04:25.407Z,9.60
2018-01-22T14:06:53.786Z,9.60
2018-01-22T14:09:22.479Z,9.50
2018-01-22T14:11:50.852Z,9.60
2018-01-22T14:14:19.303Z,9.60
2018-01-22T14:16:47.687Z,9.60
2018-01-22T14:19:16.096Z,9.60
2018-01-22T14:21:44.486Z,9.60
2018-01-22T14:24:12.878Z,9.60
2018-01-22T14:26:42.091Z,9.60
2018-01-22T14:29:12.227Z,9.50
2018-01-22T14:31:41.559Z,9.50
2018-01-22T14:34:10.055Z,9.50
2018-01-22T14:36:38.434Z,9.50
2018-01-22T14:39:06.935Z,9.50
2018-01-22T14:41:35.564Z,9.60
2018-01-22T14:44:04.037Z,9.50
2018-01-22T14:46:33.947Z,9.60
2018-01-22T14:49:03.087Z,9.60
2018-01-22T14:51:31.636Z,9.60
2018-01-22T14:54:00.114Z,9.60
2018-01-22T14:56:28.614Z,9.60
2018-01-22T14:58:57.025Z,9.50
2018-01-22T15:01:25.400Z,9.50
2018-01-22T15:03:53.979Z,9.50
2018-01-22T15:06:22.347Z,9.50
2018-01-22T15:08:50.794Z,9.50
2018-01-22T15:11:19.211Z,9.50
2018-01-22T15:13:47.787Z,9.50
2018-01-22T15:16:16.148Z,9.50
2018-01-22T15:18:44.525Z,9.40
2018-01-22T15:21:12.881Z,9.40
2018-01-22T15:23:42.001Z,9.40
2018-01-22T15:26:10.480Z,9.40
2018-01-22T15:28:38.861Z,9.30
2018-01-22T15:31:07.233Z,9.40
2018-01-22T15:33:35.820Z,9.30
2018-01-22T15:36:04.168Z,9.30
2018-01-22T15:38:33.343Z,9.30
2018-01-22T15:41:02.459Z,9.30
2018-01-22T15:43:31.602Z,9.20
2018-01-22T15:45:59.983Z,9.20
2018-01-22T15:48:28.380Z,9.20
2018-01-22T15:50:56.906Z,9.20
2018-01-22T15:53:25.057Z,9.10
2018-01-22T15:55:54.200Z,9.10
2018-01-22T15:58:22.564Z,9.10
2018-01-22T16:00:50.956Z,9.10
2018-01-22T16:03:19.607Z,9.10
2018-01-22T16:05:47.947Z,9.10
2018-01-22T16:08:16.391Z,9.10
2018-01-22T16:10:44.894Z,9.00
2018-01-22T16:13:13.227Z,9.00
2018-01-22T16:15:41.583Z,9.00
2018-01-22T16:18:10.730Z,9.00
2018-01-22T16:20:39.916Z,9.00
2018-01-22T16:23:08.270Z,9.00
2018-01-22T16:25:36.627Z,9.00
2018-01-22T16:28:06.490Z,8.90
2018-01-22T16:30:34.834Z,8.90
2018-01-22T16:33:04.139Z,8.90
2018-01-22T16:35:33.273Z,8.90
2018-01-22T16:38:01.682Z,8.90
2018-01-22T16:40:31.586Z,8.90
2018-01-22T16:43:00.005Z,8.90
2018-01-22T16:45:29.254Z,8.90
2018-01-22T16:47:57.876Z,8.90
2018-01-22T16:50:27.019Z,8.80
2018-01-22T16:52:55.370Z,8.80
2018-01-22T16:55:24.506Z,8.80
2018-01-22T16:57:52.833Z,8.70
2018-01-22T17:00:21.386Z,8.80
2018-01-22T17:02:50.494Z,8.70
2018-01-22T17:05:20.210Z,8.70
2018-01-22T17:07:49.334Z,8.70
2018-01-22T17:10:17.784Z,8.70
2018-01-22T17:12:46.907Z,8.70
2018-01-22T17:15:14.980Z,8.70
2018-01-22T17:17:43.354Z,8.70
2018-01-22T17:20:12.452Z,8.70
2018-01-22T17:22:40.790Z,8.70
2018-01-22T17:25:10.040Z,8.70
2018-01-22T17:27:38.610Z,8.70
2018-01-22T17:30:07.436Z,8.70
2018-01-22T17:32:35.802Z,8.70
2018-01-22T17:35:04.172Z,8.70
2018-01-22T17:37:32.568Z,8.70
2018-01-22T17:40:00.988Z,8.70
2018-01-22T17:42:30.095Z,8.70
2018-01-22T17:44:58.507Z,8.60
2018-01-22T17:47:26.924Z,8.70
2018-01-22T17:49:55.481Z,8.70
2018-01-22T17:52:24.231Z,8.70
2018-01-22T17:54:52.955Z,8.70
2018-01-22T17:57:21.556Z,8.70
2018-01-22T17:59:49.926Z,8.70
2018-01-22T18:02:18.570Z,8.70
2018-01-22T18:04:47.140Z,8.70
2018-01-22T18:07:15.743Z,8.70
2018-01-22T18:09:44.340Z,8.70
2018-01-22T18:12:12.955Z,8.60
2018-01-22T18:14:41.322Z,8.70
2018-01-22T18:17:09.682Z,8.70
2018-01-22T18:19:38.234Z,8.70
2018-01-22T18:22:06.438Z,8.70
2018-01-22T18:24:35.626Z,8.70
2018-01-22T18:27:03.836Z,8.70
2018-01-22T18:29:32.987Z,8.60
2018-01-22T18:32:01.369Z,8.60
2018-01-22T18:34:29.842Z,8.70
2018-01-22T18:36:58.222Z,8.70
2018-01-22T18:39:26.671Z,8.70
2018-01-22T18:41:55.801Z,8.70
2018-01-22T18:44:24.184Z,8.70
2018-01-22T18:46:52.549Z,8.70
2018-01-22T18:49:20.918Z,8.70
2018-01-22T18:51:49.338Z,8.70
2018-01-22T18:54:17.967Z,8.70
2018-01-22T18:56:46.350Z,8.70
2018-01-22T18:59:14.719Z,8.60
2018-01-22T19:01:43.997Z,8.70
2018-01-22T19:04:12.351Z,8.60
2018-01-22T19:06:42.478Z,8.70
2018-01-22T19:09:10.926Z,8.60
2018-01-22T19:11:39.487Z,8.70
2018-01-22T19:14:07.881Z,8.60
2018-01-22T19:16:36.271Z,8.60
2018-01-22T19:19:04.722Z,8.60
2018-01-22T19:21:33.149Z,8.60
2018-01-22T19:24:01.958Z,8.60
2018-01-22T19:26:30.552Z,8.60
2018-01-22T19:29:00.438Z,8.60
2018-01-22T19:31:28.860Z,8.60
2018-01-22T19:33:57.264Z,8.60
2018-01-22T19:36:25.649Z,8.60
2018-01-22T19:38:54.028Z,8.60
2018-01-22T19:41:22.384Z,8.60
2018-01-22T19:43:50.653Z,8.60
2018-01-22T19:46:19.098Z,8.60
2018-01-22T19:48:47.456Z,8.50
2018-01-22T19:51:16.045Z,8.50
2018-01-22T19:53:45.047Z,8.50
2018-01-22T19:56:13.473Z,8.50
2018-01-22T19:58:41.960Z,8.50
2018-01-22T20:01:10.300Z,8.50
2018-01-22T20:03:39.729Z,8.50
2018-01-22T20:06:08.108Z,8.50
2018-01-22T20:08:36.465Z,8.50
2018-01-22T20:11:05.586Z,8.40
2018-01-22T20:13:34.222Z,8.40
2018-01-22T20:16:02.587Z,8.40
2018-01-22T20:18:30.952Z,8.50
2018-01-22T20:21:00.096Z,8.40
2018-01-22T20:23:29.730Z,8.50
2018-01-22T20:25:58.253Z,8.40
2018-01-22T20:28:26.653Z,8.40
2018-01-22T20:30:56.268Z,8.40
2018-01-22T20:33:25.614Z,8.40
2018-01-22T20:35:54.073Z,8.40
2018-01-22T20:38:22.509Z,8.40
2018-01-22T20:40:51.745Z,8.30
2018-01-22T20:43:20.353Z,8.30
2018-01-22T20:45:48.732Z,8.30
2018-01-22T20:48:17.095Z,8.30
2018-01-22T20:50:45.657Z,8.30
2018-01-22T20:53:15.024Z,8.30
2018-01-22T20:55:43.523Z,8.30
2018-01-22T20:58:12.689Z,8.30
2018-01-22T21:00:41.339Z,8.30
2018-01-22T21:03:12.899Z,8.30
2018-01-22T21:05:41.380Z,8.30
2018-01-22T21:08:09.785Z,8.30
2018-01-22T21:10:38.413Z,8.30
2018-01-22T21:13:06.825Z,8.30
2018-01-22T21:15:35.342Z,8.30
2018-01-22T21:18:04.196Z,8.20
2018-01-22T21:20:32.877Z,8.30
2018-01-22T21:23:01.272Z,8.30
2018-01-22T21:25:30.613Z,8.20
2018-01-22T21:27:59.355Z,8.20
2018-01-22T21:30:27.712Z,8.20
2018-01-22T21:32:56.378Z,8.20
2018-01-22T21:35:25.386Z,8.20
2018-01-22T21:37:53.933Z,8.20
2018-01-22T21:40:23.070Z,8.30
2018-01-22T21:42:51.437Z,8.20
2018-01-22T21:45:19.815Z,8.30
2018-01-22T21:47:48.363Z,8.30
2018-01-22T21:50:18.269Z,8.30
2018-01-22T21:52:46.477Z,8.20
2018-01-22T21:55:14.874Z,8.30
2018-01-22T21:57:43.309Z,8.30
2018-01-22T22:00:12.520Z,8.30
2018-01-22T22:02:41.750Z,8.30
2018-01-22T22:05:10.380Z,8.20
2018-01-22T22:07:39.015Z,8.20
2018-01-22T22:10:07.406Z,8.10
2018-01-22T22:12:35.954Z,8.10
2018-01-22T22:15:04.361Z,8.10
2018-01-22T22:17:32.753Z,8.00
2018-01-22T22:20:01.126Z,8.00
2018-01-22T22:22:29.508Z,8.00
2018-01-22T22:24:57.862Z,8.00
2018-01-22T22:27:26.247Z,8.00
2018-01-22T22:29:54.615Z,8.00
2018-01-22T22:32:22.972Z,8.00
2018-01-22T22:34:51.390Z,8.00
2018-01-22T22:37:19.752Z,8.00
2018-01-22T22:39:48.131Z,7.90
2018-01-22T22:42:16.476Z,7.90
2018-01-22T22:44:45.611Z,7.90
2018-01-22T22:47:13.948Z,7.90
2018-01-22T22:49:43.863Z,7.90
2018-01-22T22:52:13.117Z,7.90
2018-01-22T22:54:41.472Z,7.90
2018-01-22T22:57:09.845Z,7.90
2018-01-22T22:59:38.746Z,7.80
2018-01-22T23:02:07.124Z,7.80
2018-01-22T23:04:35.501Z,7.80
2018-01-22T23:07:04.005Z,7.70
2018-01-22T23:09:32.460Z,7.70
2018-01-22T23:12:00.913Z,7.70
2018-01-22T23:14:29.376Z,7.60
2018-01-22T23:16:59.676Z,7.60
2018-01-22T23:19:28.408Z,7.60
2018-01-22T23:21:56.770Z,7.60
2018-01-22T23:24:26.007Z,7.70
2018-01-22T23:26:54.426Z,7.60
2018-01-22T23:29:22.775Z,7.60
2018-01-22T23:31:51.211Z,7.60
2018-01-22T23:34:20.340Z,7.60
2018-01-22T23:36:48.724Z,7.60
2018-01-22T23:39:17.088Z,7.50
2018-01-22T23:41:45.460Z,7.60
2018-01-22T23:44:13.848Z,7.50
2018-01-22T23:46:42.239Z,7.60
2018-01-22T23:49:10.607Z,7.50
2018-01-22T23:51:39.006Z,7.50
2018-01-22T23:54:07.042Z,7.50
2018-01-22T23:56:35.438Z,7.50
2018-01-22T23:59:03.826Z,7.50
